Saint Patrick, Missouri
Current Conditions -  °F | °C
As of 12:15 PM on Monday 22 Dec 2014 (Local Time) from KEOK Reporting Station
Haze Haze  
Wind Chill: 34°   Ceiling: 400
Heat Index: 39°   Visibility: 4mi
Dew Point: 39°   Wind: 8mph
Humidity: 100%   Direction: 130°SE
Pressure: 29.59"   Gusts: NA
Location:  40.26°N, 91.63°W
Report Text: KEOK 221815Z AUTO 13007KT 4SM BR OVC004 04/04 A2959 RMK AO2
Loading
Personal Weather Stations






























Interactive Weather Map New forecast layout! Learn more

10-Day Weather Forecast

Advertisements
Track Severe Weather on mobile